South Paris, Maine
Current Conditions -  °F | °C
As of 5:15 PM on Thursday 18 Dec 2014 (Local Time) from KLEW Reporting Station
Overcast Overcast  
Wind Chill: 26°   Ceiling: 2700
Heat Index: 36°   Visibility: 10mi
Dew Point: 25°   Wind: 16mph
Humidity: 65%   Direction: 310°NW
Pressure: 29.74"   Gusts: 22mph
Location:  44.22°N, 70.51°W
Report Text: KLEW 182215Z AUTO 31014G19KT 10SM OVC027 02/M04 A2974 RMK AO1
Loading
Personal Weather Stations






























Interactive Weather Map New forecast layout! Learn more

10-Day Weather Forecast

Advertisements
Track Severe Weather on mobile